sensor_id;sensor_type;location;lat;lon;timestamp;temperature;humidity
58413;DHT22;44209;52.952;6.790;2023-06-26T00:01:50;22.00;99.90
58413;DHT22;44209;52.952;6.790;2023-06-26T00:04:16;22.10;99.90
58413;DHT22;44209;52.952;6.790;2023-06-26T00:06:42;22.10;99.90
58413;DHT22;44209;52.952;6.790;2023-06-26T00:09:08;22.10;99.90
58413;DHT22;44209;52.952;6.790;2023-06-26T00:11:34;22.10;99.90
58413;DHT22;44209;52.952;6.790;2023-06-26T00:14:00;22.10;99.90
58413;DHT22;44209;52.952;6.790;2023-06-26T00:16:27;22.00;99.90
58413;DHT22;44209;52.952;6.790;2023-06-26T00:18:53;22.00;99.90
58413;DHT22;44209;52.952;6.790;2023-06-26T00:21:19;21.90;99.90
58413;DHT22;44209;52.952;6.790;2023-06-26T00:23:45;21.90;99.90
58413;DHT22;44209;52.952;6.790;2023-06-26T00:26:11;21.90;99.90
58413;DHT22;44209;52.952;6.790;2023-06-26T00:28:37;21.80;99.90
58413;DHT22;44209;52.952;6.790;2023-06-26T00:31:03;21.80;99.90
58413;DHT22;44209;52.952;6.790;2023-06-26T00:33:29;21.70;99.90
58413;DHT22;44209;52.952;6.790;2023-06-26T00:35:54;21.70;99.90
58413;DHT22;44209;52.952;6.790;2023-06-26T00:38:20;21.70;99.90
58413;DHT22;44209;52.952;6.790;2023-06-26T00:40:46;21.70;99.90
58413;DHT22;44209;52.952;6.790;2023-06-26T00:43:12;21.70;99.90
58413;DHT22;44209;52.952;6.790;2023-06-26T00:45:38;21.70;99.90
58413;DHT22;44209;52.952;6.790;2023-06-26T00:48:04;21.70;99.90
58413;DHT22;44209;52.952;6.790;2023-06-26T00:50:31;21.70;99.90
58413;DHT22;44209;52.952;6.790;2023-06-26T00:52:57;21.60;99.90
58413;DHT22;44209;52.952;6.790;2023-06-26T00:55:27;21.70;99.90
58413;DHT22;44209;52.952;6.790;2023-06-26T00:57:53;21.60;99.90
58413;DHT22;44209;52.952;6.790;2023-06-26T01:00:20;21.70;99.90
58413;DHT22;44209;52.952;6.790;2023-06-26T01:02:46;21.60;99.90
58413;DHT22;44209;52.952;6.790;2023-06-26T01:05:13;21.60;99.90
58413;DHT22;44209;52.952;6.790;2023-06-26T01:07:48;21.60;99.90
58413;DHT22;44209;52.952;6.790;2023-06-26T01:10:14;21.60;99.90
58413;DHT22;44209;52.952;6.790;2023-06-26T01:12:40;21.50;99.90
58413;DHT22;44209;52.952;6.790;2023-06-26T01:15:06;21.60;99.90
58413;DHT22;44209;52.952;6.790;2023-06-26T01:17:33;21.60;99.90
58413;DHT22;44209;52.952;6.790;2023-06-26T01:20:00;21.70;99.90
58413;DHT22;44209;52.952;6.790;2023-06-26T01:25:33;21.80;99.90
58413;DHT22;44209;52.952;6.790;2023-06-26T01:28:08;21.90;99.90
58413;DHT22;44209;52.952;6.790;2023-06-26T01:30:41;21.90;99.90
58413;DHT22;44209;52.952;6.790;2023-06-26T01:33:07;22.00;99.90
58413;DHT22;44209;52.952;6.790;2023-06-26T01:35:34;22.00;99.90
58413;DHT22;44209;52.952;6.790;2023-06-26T01:38:17;22.10;99.90
58413;DHT22;44209;52.952;6.790;2023-06-26T01:40:43;22.10;99.90
58413;DHT22;44209;52.952;6.790;2023-06-26T01:43:20;22.10;99.90
58413;DHT22;44209;52.952;6.790;2023-06-26T01:45:51;22.20;99.90
58413;DHT22;44209;52.952;6.790;2023-06-26T01:48:24;22.10;99.90
58413;DHT22;44209;52.952;6.790;2023-06-26T01:50:52;22.10;99.90
58413;DHT22;44209;52.952;6.790;2023-06-26T01:53:23;22.20;99.90
58413;DHT22;44209;52.952;6.790;2023-06-26T01:56:00;22.20;99.90
58413;DHT22;44209;52.952;6.790;2023-06-26T01:58:29;22.20;99.90
58413;DHT22;44209;52.952;6.790;2023-06-26T02:00:56;22.20;99.90
58413;DHT22;44209;52.952;6.790;2023-06-26T02:03:22;22.10;99.90
58413;DHT22;44209;52.952;6.790;2023-06-26T02:05:50;22.10;99.90
58413;DHT22;44209;52.952;6.790;2023-06-26T02:08:16;22.10;99.90
58413;DHT22;44209;52.952;6.790;2023-06-26T02:10:42;22.00;99.90
58413;DHT22;44209;52.952;6.790;2023-06-26T02:13:08;22.00;99.90
58413;DHT22;44209;52.952;6.790;2023-06-26T02:15:33;22.00;99.90
58413;DHT22;44209;52.952;6.790;2023-06-26T02:17:59;22.00;99.90
58413;DHT22;44209;52.952;6.790;2023-06-26T02:20:25;21.90;99.90
58413;DHT22;44209;52.952;6.790;2023-06-26T02:22:50;21.90;99.90
58413;DHT22;44209;52.952;6.790;2023-06-26T02:25:18;21.90;99.90
58413;DHT22;44209;52.952;6.790;2023-06-26T02:27:43;21.80;99.90
58413;DHT22;44209;52.952;6.790;2023-06-26T02:30:09;21.80;99.90
58413;DHT22;44209;52.952;6.790;2023-06-26T02:32:35;21.80;99.90
58413;DHT22;44209;52.952;6.790;2023-06-26T02:35:01;21.80;99.90
58413;DHT22;44209;52.952;6.790;2023-06-26T02:37:27;21.80;99.90
58413;DHT22;44209;52.952;6.790;2023-06-26T02:39:53;21.80;99.90
58413;DHT22;44209;52.952;6.790;2023-06-26T02:42:18;21.70;99.90
58413;DHT22;44209;52.952;6.790;2023-06-26T02:44:44;21.80;99.90
58413;DHT22;44209;52.952;6.790;2023-06-26T02:47:10;21.70;99.90
58413;DHT22;44209;52.952;6.790;2023-06-26T02:49:36;21.70;99.90
58413;DHT22;44209;52.952;6.790;2023-06-26T02:52:01;21.70;99.90
58413;DHT22;44209;52.952;6.790;2023-06-26T02:54:27;21.60;99.90
58413;DHT22;44209;52.952;6.790;2023-06-26T02:56:53;21.70;99.90
58413;DHT22;44209;52.952;6.790;2023-06-26T02:59:18;21.60;99.90
58413;DHT22;44209;52.952;6.790;2023-06-26T03:01:44;21.60;99.90
58413;DHT22;44209;52.952;6.790;2023-06-26T03:04:10;21.60;99.90
58413;DHT22;44209;52.952;6.790;2023-06-26T03:06:36;21.60;99.90
58413;DHT22;44209;52.952;6.790;2023-06-26T03:09:02;21.50;99.90
58413;DHT22;44209;52.952;6.790;2023-06-26T03:11:28;21.50;99.90
58413;DHT22;44209;52.952;6.790;2023-06-26T03:13:54;21.50;99.90
58413;DHT22;44209;52.952;6.790;2023-06-26T03:16:20;21.50;99.90
58413;DHT22;44209;52.952;6.790;2023-06-26T03:18:45;21.50;99.90
58413;DHT22;44209;52.952;6.790;2023-06-26T03:21:11;21.50;99.90
58413;DHT22;44209;52.952;6.790;2023-06-26T03:23:37;21.50;99.90
58413;DHT22;44209;52.952;6.790;2023-06-26T03:26:02;21.40;99.90
58413;DHT22;44209;52.952;6.790;2023-06-26T03:28:28;21.40;99.90
58413;DHT22;44209;52.952;6.790;2023-06-26T03:30:56;21.30;99.90
58413;DHT22;44209;52.952;6.790;2023-06-26T03:33:22;21.30;99.90
58413;DHT22;44209;52.952;6.790;2023-06-26T03:35:48;21.20;99.90
58413;DHT22;44209;52.952;6.790;2023-06-26T03:38:13;21.30;99.90
58413;DHT22;44209;52.952;6.790;2023-06-26T03:40:39;21.30;99.90
58413;DHT22;44209;52.952;6.790;2023-06-26T03:43:05;21.40;99.90
58413;DHT22;44209;52.952;6.790;2023-06-26T03:45:30;21.50;99.90
58413;DHT22;44209;52.952;6.790;2023-06-26T03:47:56;21.70;99.90
58413;DHT22;44209;52.952;6.790;2023-06-26T03:50:22;21.90;99.90
58413;DHT22;44209;52.952;6.790;2023-06-26T03:52:47;21.90;99.90
58413;DHT22;44209;52.952;6.790;2023-06-26T03:55:15;21.90;99.90
58413;DHT22;44209;52.952;6.790;2023-06-26T03:57:41;21.90;99.90
58413;DHT22;44209;52.952;6.790;2023-06-26T04:00:07;21.90;99.90
58413;DHT22;44209;52.952;6.790;2023-06-26T04:02:36;21.80;99.90
58413;DHT22;44209;52.952;6.790;2023-06-26T04:05:02;21.80;99.90
58413;DHT22;44209;52.952;6.790;2023-06-26T04:07:31;21.80;99.90
58413;DHT22;44209;52.952;6.790;2023-06-26T04:09:57;21.80;99.90
58413;DHT22;44209;52.952;6.790;2023-06-26T04:12:23;21.80;99.90
58413;DHT22;44209;52.952;6.790;2023-06-26T04:14:49;21.80;99.90
58413;DHT22;44209;52.952;6.790;2023-06-26T04:17:14;21.80;99.90
58413;DHT22;44209;52.952;6.790;2023-06-26T04:19:40;21.90;99.90
58413;DHT22;44209;52.952;6.790;2023-06-26T04:22:06;21.80;99.90
58413;DHT22;44209;52.952;6.790;2023-06-26T04:24:32;21.90;99.90
58413;DHT22;44209;52.952;6.790;2023-06-26T04:26:57;21.90;99.90
58413;DHT22;44209;52.952;6.790;2023-06-26T04:29:25;21.90;99.90
58413;DHT22;44209;52.952;6.790;2023-06-26T04:31:52;21.90;99.90
58413;DHT22;44209;52.952;6.790;2023-06-26T04:34:19;21.90;99.90
58413;DHT22;44209;52.952;6.790;2023-06-26T04:36:44;21.90;99.90
58413;DHT22;44209;52.952;6.790;2023-06-26T04:39:14;21.90;99.90
58413;DHT22;44209;52.952;6.790;2023-06-26T04:41:40;21.90;99.90
58413;DHT22;44209;52.952;6.790;2023-06-26T04:44:06;21.90;99.90
58413;DHT22;44209;52.952;6.790;2023-06-26T04:46:32;21.90;99.90
58413;DHT22;44209;52.952;6.790;2023-06-26T04:48:57;21.90;99.90
58413;DHT22;44209;52.952;6.790;2023-06-26T04:51:24;21.90;99.90
58413;DHT22;44209;52.952;6.790;2023-06-26T04:53:52;21.80;99.90
58413;DHT22;44209;52.952;6.790;2023-06-26T04:56:18;21.80;99.90
58413;DHT22;44209;52.952;6.790;2023-06-26T04:58:44;21.70;99.90
58413;DHT22;44209;52.952;6.790;2023-06-26T05:01:09;21.70;99.90
58413;DHT22;44209;52.952;6.790;2023-06-26T05:03:35;21.70;99.90
58413;DHT22;44209;52.952;6.790;2023-06-26T05:06:02;21.70;99.90
58413;DHT22;44209;52.952;6.790;2023-06-26T05:08:28;21.80;99.90
58413;DHT22;44209;52.952;6.790;2023-06-26T05:10:53;21.80;99.90
58413;DHT22;44209;52.952;6.790;2023-06-26T05:13:23;21.80;99.90
58413;DHT22;44209;52.952;6.790;2023-06-26T05:15:50;21.90;99.90
58413;DHT22;44209;52.952;6.790;2023-06-26T05:18:15;21.90;99.90
58413;DHT22;44209;52.952;6.790;2023-06-26T05:20:41;21.90;99.90
58413;DHT22;44209;52.952;6.790;2023-06-26T05:23:07;21.90;99.90
58413;DHT22;44209;52.952;6.790;2023-06-26T05:25:33;21.90;99.90
58413;DHT22;44209;52.952;6.790;2023-06-26T05:28:00;21.80;99.90
58413;DHT22;44209;52.952;6.790;2023-06-26T05:30:26;21.80;99.90
58413;DHT22;44209;52.952;6.790;2023-06-26T05:32:53;21.80;99.90
58413;DHT22;44209;52.952;6.790;2023-06-26T05:35:23;21.80;99.90
58413;DHT22;44209;52.952;6.790;2023-06-26T05:37:50;21.80;99.90
58413;DHT22;44209;52.952;6.790;2023-06-26T05:40:19;21.70;99.90
58413;DHT22;44209;52.952;6.790;2023-06-26T05:42:45;21.70;99.90
58413;DHT22;44209;52.952;6.790;2023-06-26T05:45:11;21.60;99.90
58413;DHT22;44209;52.952;6.790;2023-06-26T05:47:37;21.60;99.90
58413;DHT22;44209;52.952;6.790;2023-06-26T05:50:03;21.60;99.90
58413;DHT22;44209;52.952;6.790;2023-06-26T05:52:30;21.60;99.90
58413;DHT22;44209;52.952;6.790;2023-06-26T05:54:56;21.60;99.90
58413;DHT22;44209;52.952;6.790;2023-06-26T05:57:29;21.60;99.90
58413;DHT22;44209;52.952;6.790;2023-06-26T05:59:56;21.60;99.90
58413;DHT22;44209;52.952;6.790;2023-06-26T06:02:22;21.60;99.90
58413;DHT22;44209;52.952;6.790;2023-06-26T06:04:48;21.60;99.90
58413;DHT22;44209;52.952;6.790;2023-06-26T06:07:14;21.50;99.90
58413;DHT22;44209;52.952;6.790;2023-06-26T06:09:40;21.50;99.90
58413;DHT22;44209;52.952;6.790;2023-06-26T06:12:06;21.50;99.90
58413;DHT22;44209;52.952;6.790;2023-06-26T06:14:33;21.40;99.90
58413;DHT22;44209;52.952;6.790;2023-06-26T06:16:59;21.30;99.90
58413;DHT22;44209;52.952;6.790;2023-06-26T06:19:25;21.20;99.90
58413;DHT22;44209;52.952;6.790;2023-06-26T06:21:51;21.10;99.90
58413;DHT22;44209;52.952;6.790;2023-06-26T06:24:16;21.10;99.90
58413;DHT22;44209;52.952;6.790;2023-06-26T06:26:42;21.00;99.90
58413;DHT22;44209;52.952;6.790;2023-06-26T06:29:08;21.00;99.90
58413;DHT22;44209;52.952;6.790;2023-06-26T06:31:34;20.90;99.90
58413;DHT22;44209;52.952;6.790;2023-06-26T06:33:59;21.00;99.90
58413;DHT22;44209;52.952;6.790;2023-06-26T06:36:25;21.10;99.90
58413;DHT22;44209;52.952;6.790;2023-06-26T06:38:51;21.20;99.90
58413;DHT22;44209;52.952;6.790;2023-06-26T06:41:17;21.30;99.90
58413;DHT22;44209;52.952;6.790;2023-06-26T06:43:43;21.30;99.90
58413;DHT22;44209;52.952;6.790;2023-06-26T06:46:09;21.40;99.90
58413;DHT22;44209;52.952;6.790;2023-06-26T06:48:35;21.30;99.90
58413;DHT22;44209;52.952;6.790;2023-06-26T06:51:00;21.30;99.90
58413;DHT22;44209;52.952;6.790;2023-06-26T06:53:26;21.30;99.90
58413;DHT22;44209;52.952;6.790;2023-06-26T06:55:52;21.30;99.90
58413;DHT22;44209;52.952;6.790;2023-06-26T06:58:18;21.20;99.90
58413;DHT22;44209;52.952;6.790;2023-06-26T07:00:48;21.40;99.90
58413;DHT22;44209;52.952;6.790;2023-06-26T07:03:14;21.50;99.90
58413;DHT22;44209;52.952;6.790;2023-06-26T07:05:43;21.70;99.90
58413;DHT22;44209;52.952;6.790;2023-06-26T07:08:09;21.80;99.90
58413;DHT22;44209;52.952;6.790;2023-06-26T07:10:34;22.00;99.90
58413;DHT22;44209;52.952;6.790;2023-06-26T07:13:00;22.10;99.90
58413;DHT22;44209;52.952;6.790;2023-06-26T07:15:26;22.10;99.90
58413;DHT22;44209;52.952;6.790;2023-06-26T07:17:52;22.10;99.90
58413;DHT22;44209;52.952;6.790;2023-06-26T07:20:18;22.10;99.90
58413;DHT22;44209;52.952;6.790;2023-06-26T07:22:43;22.10;99.90
58413;DHT22;44209;52.952;6.790;2023-06-26T07:25:13;22.10;99.90
58413;DHT22;44209;52.952;6.790;2023-06-26T07:27:39;22.20;99.90
58413;DHT22;44209;52.952;6.790;2023-06-26T07:30:06;22.40;99.90
58413;DHT22;44209;52.952;6.790;2023-06-26T07:32:34;22.50;99.90
58413;DHT22;44209;52.952;6.790;2023-06-26T07:35:00;22.60;99.90
58413;DHT22;44209;52.952;6.790;2023-06-26T07:37:28;22.60;99.90
58413;DHT22;44209;52.952;6.790;2023-06-26T07:39:54;22.80;99.90
58413;DHT22;44209;52.952;6.790;2023-06-26T07:42:20;22.90;99.90
58413;DHT22;44209;52.952;6.790;2023-06-26T07:44:45;23.00;99.90
58413;DHT22;44209;52.952;6.790;2023-06-26T07:47:12;23.20;99.90
58413;DHT22;44209;52.952;6.790;2023-06-26T07:49:37;23.20;99.90
58413;DHT22;44209;52.952;6.790;2023-06-26T07:52:05;23.10;99.90
58413;DHT22;44209;52.952;6.790;2023-06-26T07:54:31;23.10;99.90
58413;DHT22;44209;52.952;6.790;2023-06-26T07:56:57;23.20;99.90
58413;DHT22;44209;52.952;6.790;2023-06-26T07:59:24;23.30;99.90
58413;DHT22;44209;52.952;6.790;2023-06-26T08:01:51;23.30;99.90
58413;DHT22;44209;52.952;6.790;2023-06-26T08:04:19;23.40;99.90
58413;DHT22;44209;52.952;6.790;2023-06-26T08:06:47;23.50;99.90
58413;DHT22;44209;52.952;6.790;2023-06-26T08:09:13;23.60;99.90
58413;DHT22;44209;52.952;6.790;2023-06-26T08:11:39;23.70;99.90
58413;DHT22;44209;52.952;6.790;2023-06-26T08:14:04;23.70;99.90
58413;DHT22;44209;52.952;6.790;2023-06-26T08:16:30;23.80;99.90
58413;DHT22;44209;52.952;6.790;2023-06-26T08:18:56;23.80;99.90
58413;DHT22;44209;52.952;6.790;2023-06-26T08:21:21;23.90;99.90
58413;DHT22;44209;52.952;6.790;2023-06-26T08:23:47;23.90;99.90
58413;DHT22;44209;52.952;6.790;2023-06-26T08:26:13;23.90;99.90
58413;DHT22;44209;52.952;6.790;2023-06-26T08:28:39;23.90;99.90
58413;DHT22;44209;52.952;6.790;2023-06-26T08:31:05;23.80;99.90
58413;DHT22;44209;52.952;6.790;2023-06-26T08:33:31;23.80;99.90
58413;DHT22;44209;52.952;6.790;2023-06-26T08:35:56;23.80;99.90
58413;DHT22;44209;52.952;6.790;2023-06-26T08:38:22;23.90;99.90
58413;DHT22;44209;52.952;6.790;2023-06-26T08:40:48;23.90;99.90
58413;DHT22;44209;52.952;6.790;2023-06-26T08:43:14;24.00;99.90
58413;DHT22;44209;52.952;6.790;2023-06-26T08:45:40;23.90;99.90
58413;DHT22;44209;52.952;6.790;2023-06-26T08:48:09;23.70;99.90
58413;DHT22;44209;52.952;6.790;2023-06-26T08:50:36;23.60;99.90
58413;DHT22;44209;52.952;6.790;2023-06-26T08:55:49;23.70;99.90
58413;DHT22;44209;52.952;6.790;2023-06-26T08:58:17;23.70;99.90
58413;DHT22;44209;52.952;6.790;2023-06-26T09:00:43;23.60;99.90
58413;DHT22;44209;52.952;6.790;2023-06-26T09:03:09;23.50;99.90
58413;DHT22;44209;52.952;6.790;2023-06-26T09:05:35;23.60;99.90
58413;DHT22;44209;52.952;6.790;2023-06-26T09:08:02;23.90;99.90
58413;DHT22;44209;52.952;6.790;2023-06-26T09:10:28;23.80;99.90
58413;DHT22;44209;52.952;6.790;2023-06-26T09:12:57;24.00;99.90
58413;DHT22;44209;52.952;6.790;2023-06-26T09:15:23;24.30;99.90
58413;DHT22;44209;52.952;6.790;2023-06-26T09:17:49;24.10;99.90
58413;DHT22;44209;52.952;6.790;2023-06-26T09:20:15;23.70;99.90
58413;DHT22;44209;52.952;6.790;2023-06-26T09:22:43;23.30;99.90
58413;DHT22;44209;52.952;6.790;2023-06-26T09:25:12;23.30;99.90
58413;DHT22;44209;52.952;6.790;2023-06-26T09:27:38;23.40;99.90
58413;DHT22;44209;52.952;6.790;2023-06-26T09:30:05;23.80;99.90
58413;DHT22;44209;52.952;6.790;2023-06-26T09:32:35;23.90;99.90
58413;DHT22;44209;52.952;6.790;2023-06-26T09:35:03;23.60;99.90
58413;DHT22;44209;52.952;6.790;2023-06-26T09:37:29;23.40;99.90
58413;DHT22;44209;52.952;6.790;2023-06-26T09:39:54;23.10;99.90
58413;DHT22;44209;52.952;6.790;2023-06-26T09:42:21;23.00;99.90
58413;DHT22;44209;52.952;6.790;2023-06-26T09:44:49;22.90;99.90
58413;DHT22;44209;52.952;6.790;2023-06-26T09:47:18;23.20;99.90
58413;DHT22;44209;52.952;6.790;2023-06-26T09:49:45;23.40;99.90
58413;DHT22;44209;52.952;6.790;2023-06-26T09:52:15;23.30;99.90
58413;DHT22;44209;52.952;6.790;2023-06-26T09:54:42;23.20;99.90
58413;DHT22;44209;52.952;6.790;2023-06-26T09:57:16;23.10;99.90
58413;DHT22;44209;52.952;6.790;2023-06-26T09:59:41;23.40;99.90
58413;DHT22;44209;52.952;6.790;2023-06-26T10:02:08;23.60;99.90
58413;DHT22;44209;52.952;6.790;2023-06-26T10:04:35;23.80;99.90
58413;DHT22;44209;52.952;6.790;2023-06-26T10:07:11;24.00;99.90
58413;DHT22;44209;52.952;6.790;2023-06-26T10:09:41;24.10;99.90
58413;DHT22;44209;52.952;6.790;2023-06-26T10:12:30;24.30;99.90
58413;DHT22;44209;52.952;6.790;2023-06-26T10:14:57;24.30;99.90
58413;DHT22;44209;52.952;6.790;2023-06-26T10:17:26;24.00;99.90
58413;DHT22;44209;52.952;6.790;2023-06-26T10:19:53;23.90;99.90
58413;DHT22;44209;52.952;6.790;2023-06-26T10:22:27;23.90;99.90
58413;DHT22;44209;52.952;6.790;2023-06-26T10:24:56;24.10;99.90
58413;DHT22;44209;52.952;6.790;2023-06-26T10:27:26;24.30;99.90
58413;DHT22;44209;52.952;6.790;2023-06-26T10:29:55;24.40;99.90
58413;DHT22;44209;52.952;6.790;2023-06-26T10:32:23;24.70;99.90
58413;DHT22;44209;52.952;6.790;2023-06-26T10:34:50;24.80;97.00
58413;DHT22;44209;52.952;6.790;2023-06-26T10:37:16;24.90;98.50
58413;DHT22;44209;52.952;6.790;2023-06-26T10:39:52;24.80;94.20
58413;DHT22;44209;52.952;6.790;2023-06-26T10:42:28;24.50;97.10
58413;DHT22;44209;52.952;6.790;2023-06-26T10:45:11;24.40;99.90
58413;DHT22;44209;52.952;6.790;2023-06-26T10:47:40;24.30;99.90
58413;DHT22;44209;52.952;6.790;2023-06-26T10:50:27;23.90;99.90
58413;DHT22;44209;52.952;6.790;2023-06-26T10:55:54;23.70;99.90
58413;DHT22;44209;52.952;6.790;2023-06-26T11:03:39;23.60;99.90
58413;DHT22;44209;52.952;6.790;2023-06-26T11:06:11;23.80;99.90
58413;DHT22;44209;52.952;6.790;2023-06-26T11:09:00;23.90;99.90
58413;DHT22;44209;52.952;6.790;2023-06-26T11:14:21;24.10;92.60
58413;DHT22;44209;52.952;6.790;2023-06-26T11:16:47;24.10;95.80
58413;DHT22;44209;52.952;6.790;2023-06-26T11:19:16;24.30;96.20
58413;DHT22;44209;52.952;6.790;2023-06-26T11:21:42;24.70;94.70
58413;DHT22;44209;52.952;6.790;2023-06-26T11:24:09;25.00;94.80
58413;DHT22;44209;52.952;6.790;2023-06-26T11:26:42;24.70;87.40
58413;DHT22;44209;52.952;6.790;2023-06-26T11:29:09;24.50;90.70
58413;DHT22;44209;52.952;6.790;2023-06-26T11:31:37;24.50;92.20
58413;DHT22;44209;52.952;6.790;2023-06-26T11:34:08;24.60;87.70
58413;DHT22;44209;52.952;6.790;2023-06-26T11:36:36;24.50;79.00
58413;DHT22;44209;52.952;6.790;2023-06-26T11:39:04;24.60;80.80
58413;DHT22;44209;52.952;6.790;2023-06-26T11:41:36;24.60;77.00
58413;DHT22;44209;52.952;6.790;2023-06-26T11:44:07;24.60;77.70
58413;DHT22;44209;52.952;6.790;2023-06-26T11:46:35;24.70;81.40
58413;DHT22;44209;52.952;6.790;2023-06-26T11:49:07;24.70;83.90
58413;DHT22;44209;52.952;6.790;2023-06-26T11:51:34;24.60;82.80
58413;DHT22;44209;52.952;6.790;2023-06-26T11:54:03;24.80;82.70
58413;DHT22;44209;52.952;6.790;2023-06-26T11:56:29;25.00;78.00
58413;DHT22;44209;52.952;6.790;2023-06-26T11:59:05;25.00;73.60
58413;DHT22;44209;52.952;6.790;2023-06-26T12:01:36;25.20;73.70
58413;DHT22;44209;52.952;6.790;2023-06-26T12:04:06;25.20;74.30
58413;DHT22;44209;52.952;6.790;2023-06-26T12:06:40;25.00;72.60
58413;DHT22;44209;52.952;6.790;2023-06-26T12:09:11;24.80;74.40
58413;DHT22;44209;52.952;6.790;2023-06-26T12:11:44;24.40;76.50
58413;DHT22;44209;52.952;6.790;2023-06-26T12:14:11;24.00;79.70
58413;DHT22;44209;52.952;6.790;2023-06-26T12:16:37;24.00;89.10
58413;DHT22;44209;52.952;6.790;2023-06-26T12:19:06;24.00;86.90
58413;DHT22;44209;52.952;6.790;2023-06-26T12:24:17;24.00;82.40
58413;DHT22;44209;52.952;6.790;2023-06-26T12:26:50;23.90;82.00
58413;DHT22;44209;52.952;6.790;2023-06-26T12:29:18;23.90;84.60
58413;DHT22;44209;52.952;6.790;2023-06-26T12:31:46;23.90;83.30
58413;DHT22;44209;52.952;6.790;2023-06-26T12:34:14;24.00;81.00
58413;DHT22;44209;52.952;6.790;2023-06-26T12:36:48;24.10;81.50
58413;DHT22;44209;52.952;6.790;2023-06-26T12:39:16;24.30;80.90
58413;DHT22;44209;52.952;6.790;2023-06-26T12:41:46;24.40;78.90
58413;DHT22;44209;52.952;6.790;2023-06-26T12:44:29;24.10;76.20
58413;DHT22;44209;52.952;6.790;2023-06-26T12:47:00;24.10;75.00
58413;DHT22;44209;52.952;6.790;2023-06-26T12:49:37;24.10;72.60
58413;DHT22;44209;52.952;6.790;2023-06-26T12:52:07;24.20;71.20
58413;DHT22;44209;52.952;6.790;2023-06-26T12:54:40;24.00;68.10
58413;DHT22;44209;52.952;6.790;2023-06-26T12:57:06;23.90;68.20
58413;DHT22;44209;52.952;6.790;2023-06-26T12:59:33;23.90;68.60
58413;DHT22;44209;52.952;6.790;2023-06-26T13:02:00;24.10;67.30
58413;DHT22;44209;52.952;6.790;2023-06-26T13:04:26;24.30;66.80
58413;DHT22;44209;52.952;6.790;2023-06-26T13:06:52;24.50;67.50
58413;DHT22;44209;52.952;6.790;2023-06-26T13:09:21;24.60;67.00
58413;DHT22;44209;52.952;6.790;2023-06-26T13:11:47;24.60;66.60
58413;DHT22;44209;52.952;6.790;2023-06-26T13:14:13;24.40;65.90
58413;DHT22;44209;52.952;6.790;2023-06-26T13:16:39;24.20;66.30
58413;DHT22;44209;52.952;6.790;2023-06-26T13:19:05;24.00;67.60
58413;DHT22;44209;52.952;6.790;2023-06-26T13:21:31;23.90;68.70
58413;DHT22;44209;52.952;6.790;2023-06-26T13:23:57;23.90;70.70
58413;DHT22;44209;52.952;6.790;2023-06-26T13:26:24;24.00;72.60
58413;DHT22;44209;52.952;6.790;2023-06-26T13:28:51;24.00;73.60
58413;DHT22;44209;52.952;6.790;2023-06-26T13:31:17;24.00;72.20
58413;DHT22;44209;52.952;6.790;2023-06-26T13:33:44;24.00;74.10
58413;DHT22;44209;52.952;6.790;2023-06-26T13:36:11;24.10;75.50
58413;DHT22;44209;52.952;6.790;2023-06-26T13:38:37;24.00;74.10
58413;DHT22;44209;52.952;6.790;2023-06-26T13:41:03;23.90;73.70
58413;DHT22;44209;52.952;6.790;2023-06-26T13:43:29;23.70;74.60
58413;DHT22;44209;52.952;6.790;2023-06-26T13:45:55;23.50;74.70
58413;DHT22;44209;52.952;6.790;2023-06-26T13:48:21;23.30;76.00
58413;DHT22;44209;52.952;6.790;2023-06-26T13:50:50;23.20;78.00
58413;DHT22;44209;52.952;6.790;2023-06-26T13:53:16;23.00;78.90
58413;DHT22;44209;52.952;6.790;2023-06-26T13:55:42;22.90;81.20
58413;DHT22;44209;52.952;6.790;2023-06-26T13:58:08;22.80;84.50
58413;DHT22;44209;52.952;6.790;2023-06-26T14:00:35;23.00;88.00
58413;DHT22;44209;52.952;6.790;2023-06-26T14:03:02;23.30;87.10
58413;DHT22;44209;52.952;6.790;2023-06-26T14:05:32;23.40;84.20
58413;DHT22;44209;52.952;6.790;2023-06-26T14:07:58;23.50;85.30
58413;DHT22;44209;52.952;6.790;2023-06-26T14:10:24;23.30;82.10
58413;DHT22;44209;52.952;6.790;2023-06-26T14:12:50;23.50;83.00
58413;DHT22;44209;52.952;6.790;2023-06-26T14:15:16;23.60;80.70
58413;DHT22;44209;52.952;6.790;2023-06-26T14:17:42;23.70;82.60
58413;DHT22;44209;52.952;6.790;2023-06-26T14:20:09;23.70;81.20
58413;DHT22;44209;52.952;6.790;2023-06-26T14:22:40;24.00;78.30
58413;DHT22;44209;52.952;6.790;2023-06-26T14:25:07;24.00;76.70
58413;DHT22;44209;52.952;6.790;2023-06-26T14:27:33;24.00;77.00
58413;DHT22;44209;52.952;6.790;2023-06-26T14:29:59;23.70;78.60
58413;DHT22;44209;52.952;6.790;2023-06-26T14:32:25;23.30;82.50
58413;DHT22;44209;52.952;6.790;2023-06-26T14:34:51;23.30;82.70
58413;DHT22;44209;52.952;6.790;2023-06-26T14:37:16;23.30;82.00
58413;DHT22;44209;52.952;6.790;2023-06-26T14:39:44;23.40;81.80
58413;DHT22;44209;52.952;6.790;2023-06-26T14:42:10;23.50;76.90
58413;DHT22;44209;52.952;6.790;2023-06-26T14:44:36;23.40;74.60
58413;DHT22;44209;52.952;6.790;2023-06-26T14:47:01;23.40;74.70
58413;DHT22;44209;52.952;6.790;2023-06-26T14:49:27;23.40;74.30
58413;DHT22;44209;52.952;6.790;2023-06-26T14:51:53;23.20;74.50
58413;DHT22;44209;52.952;6.790;2023-06-26T14:54:19;23.10;76.00
58413;DHT22;44209;52.952;6.790;2023-06-26T14:56:44;23.20;75.80
58413;DHT22;44209;52.952;6.790;2023-06-26T14:59:11;23.10;76.80
58413;DHT22;44209;52.952;6.790;2023-06-26T15:01:38;23.10;77.10
58413;DHT22;44209;52.952;6.790;2023-06-26T15:04:05;23.20;77.00
58413;DHT22;44209;52.952;6.790;2023-06-26T15:06:31;23.30;78.10
58413;DHT22;44209;52.952;6.790;2023-06-26T15:08:58;23.60;80.10
58413;DHT22;44209;52.952;6.790;2023-06-26T15:11:23;23.80;78.10
58413;DHT22;44209;52.952;6.790;2023-06-26T15:13:49;23.70;76.90
58413;DHT22;44209;52.952;6.790;2023-06-26T15:16:15;23.70;77.70
58413;DHT22;44209;52.952;6.790;2023-06-26T15:18:41;23.70;76.80
58413;DHT22;44209;52.952;6.790;2023-06-26T15:21:07;23.30;77.60
58413;DHT22;44209;52.952;6.790;2023-06-26T15:23:34;23.00;82.00
58413;DHT22;44209;52.952;6.790;2023-06-26T15:25:59;23.00;83.60
58413;DHT22;44209;52.952;6.790;2023-06-26T15:28:25;23.00;83.80
58413;DHT22;44209;52.952;6.790;2023-06-26T15:30:51;23.00;78.50
58413;DHT22;44209;52.952;6.790;2023-06-26T15:33:17;22.90;78.20
58413;DHT22;44209;52.952;6.790;2023-06-26T15:35:42;22.90;76.00
58413;DHT22;44209;52.952;6.790;2023-06-26T15:38:08;22.80;77.10
58413;DHT22;44209;52.952;6.790;2023-06-26T15:40:34;22.70;79.60
58413;DHT22;44209;52.952;6.790;2023-06-26T15:42:59;22.50;84.60
58413;DHT22;44209;52.952;6.790;2023-06-26T15:45:25;22.40;84.60
58413;DHT22;44209;52.952;6.790;2023-06-26T15:47:51;22.30;86.90
58413;DHT22;44209;52.952;6.790;2023-06-26T15:50:18;22.00;80.00